Time;durP1;ratioP1;P1;durP2;ratioP2;P2;SDS_P1;SDS_P2;PMS_P1;PMS_P2;Temp;Humidity;BMP_temperature;BMP_pressure;BME280_temperature;BME280_humidity;BME280_pressure;Samples;Min_cycle;Max_cycle;Signal;HPM_P1;HPM_P2
2023/05/16 00:00:52;;;;;;;;;;;14.60;94.30;;;;;;5030153;28;19921;-78
2023/05/16 00:03:18;;;;;;;;;;;14.60;93.90;;;;;;5029950;28;19920;-78
2023/05/16 00:05:44;;;;;;;;;;;14.60;94.20;;;;;;5029448;28;19909;-78
2023/05/16 00:08:10;;;;;;;;;;;14.60;94.10;;;;;;5028997;28;19966;-78
2023/05/16 00:10:36;;;;;;;;;;;14.50;94.30;;;;;;5037417;28;20390;-78
2023/05/16 00:13:02;;;;;;;;;;;14.50;94.30;;;;;;5055633;28;20006;-78
2023/05/16 00:15:28;;;;;;;;;;;14.50;94.10;;;;;;5030543;28;19955;-78
2023/05/16 00:17:57;;;;;;;;;;;14.60;94.10;;;;;;5029625;28;19921;-77
2023/05/16 00:20:23;;;;;;;;;;;14.50;94.40;;;;;;5029305;28;20389;-78
2023/05/16 00:22:49;;;;;;;;;;;14.50;94.30;;;;;;5031212;28;19913;-78
2023/05/16 00:25:16;;;;;;;;;;;14.50;94.30;;;;;;5034693;28;19951;-78
2023/05/16 00:27:41;;;;;;;;;;;14.50;94.30;;;;;;5029883;28;20386;-77
2023/05/16 00:30:07;;;;;;;;;;;14.50;94.20;;;;;;5024447;28;20007;-77
2023/05/16 00:32:33;;;;;;;;;;;14.50;94.60;;;;;;5033766;28;19909;-77
2023/05/16 00:34:58;;;;;;;;;;;14.50;94.40;;;;;;5029083;28;20007;-78
2023/05/16 00:37:24;;;;;;;;;;;14.50;94.30;;;;;;5027096;28;20310;-77
2023/05/16 00:39:49;;;;;;;;;;;14.50;94.40;;;;;;5022151;28;19909;-77
2023/05/16 00:42:15;;;;;;;;;;;14.50;94.50;;;;;;5033696;28;19924;-77
2023/05/16 00:44:41;;;;;;;;;;;14.50;94.70;;;;;;5023627;28;19923;-77
2023/05/16 00:47:07;;;;;;;;;;;14.40;95.00;;;;;;5026915;28;19913;-78
2023/05/16 00:49:32;;;;;;;;;;;14.40;95.60;;;;;;5034610;28;19912;-78
2023/05/16 00:51:58;;;;;;;;;;;14.30;95.90;;;;;;5032600;28;20036;-78
2023/05/16 00:54:25;;;;;;;;;;;14.30;95.90;;;;;;5026008;28;19959;-77
2023/05/16 00:56:51;;;;;;;;;;;14.30;95.80;;;;;;5026236;28;19913;-77
2023/05/16 00:59:18;;;;;;;;;;;14.40;95.40;;;;;;5027867;28;19909;-77
2023/05/16 01:01:45;;;;;;;;;;;14.40;95.40;;;;;;5030599;28;19967;-77
2023/05/16 01:04:11;;;;;;;;;;;14.40;95.60;;;;;;5031154;28;20012;-76
2023/05/16 01:06:36;;;;;;;;;;;14.40;95.40;;;;;;5027443;28;19905;-76
2023/05/16 01:09:02;;;;;;;;;;;14.40;95.40;;;;;;5025836;28;19916;-76
2023/05/16 01:11:47;;;;;;;;;;;14.40;95.20;;;;;;5022749;28;19905;-77
2023/05/16 01:14:31;;;;;;;;;;;14.40;95.00;;;;;;5032574;28;19909;-77
2023/05/16 01:17:22;;;;;;;;;;;14.40;95.00;;;;;;5019919;28;19916;-76
2023/05/16 01:19:59;;;;;;;;;;;14.40;95.00;;;;;;5034658;28;19952;-77
2023/05/16 01:22:24;;;;;;;;;;;14.40;95.00;;;;;;5029847;28;19912;-78
2023/05/16 01:25:17;;;;;;;;;;;14.50;94.60;;;;;;5032086;28;19917;-77
2023/05/16 01:27:43;;;;;;;;;;;14.50;94.70;;;;;;5032100;28;19920;-77
2023/05/16 01:30:13;;;;;;;;;;;14.50;94.60;;;;;;5035683;28;20021;-77
2023/05/16 01:32:38;;;;;;;;;;;14.40;94.80;;;;;;5030685;28;19909;-78
2023/05/16 01:35:05;;;;;;;;;;;14.40;94.90;;;;;;5022101;28;19924;-77
2023/05/16 01:37:34;;;;;;;;;;;14.40;94.80;;;;;;5029512;28;20006;-78
2023/05/16 01:40:06;;;;;;;;;;;14.40;95.00;;;;;;5032406;28;19917;-77
2023/05/16 01:42:33;;;;;;;;;;;14.40;95.00;;;;;;5030501;28;19991;-77
2023/05/16 01:45:02;;;;;;;;;;;14.40;94.90;;;;;;5029003;28;19917;-77
2023/05/16 01:47:29;;;;;;;;;;;14.40;94.90;;;;;;5024153;28;20062;-79
2023/05/16 01:50:05;;;;;;;;;;;14.40;94.80;;;;;;5029183;28;20284;-76
2023/05/16 01:52:37;;;;;;;;;;;14.40;94.70;;;;;;5025405;28;19915;-77
2023/05/16 01:55:03;;;;;;;;;;;14.30;95.00;;;;;;5025808;28;19920;-79
2023/05/16 01:57:29;;;;;;;;;;;14.30;95.20;;;;;;5025930;28;19909;-77
2023/05/16 01:59:56;;;;;;;;;;;14.30;95.40;;;;;;5027729;28;19913;-77
2023/05/16 02:02:23;;;;;;;;;;;14.30;95.50;;;;;;5031108;28;19912;-77
2023/05/16 02:04:49;;;;;;;;;;;14.30;95.20;;;;;;5031902;28;20529;-77
2023/05/16 02:07:15;;;;;;;;;;;14.30;95.50;;;;;;5027783;28;19913;-77
2023/05/16 02:09:40;;;;;;;;;;;14.20;96.00;;;;;;5028739;28;19917;-77
2023/05/16 02:12:06;;;;;;;;;;;14.10;96.40;;;;;;5035633;28;19922;-78
2023/05/16 02:14:31;;;;;;;;;;;14.10;96.30;;;;;;5027990;28;19905;-78
2023/05/16 02:16:57;;;;;;;;;;;14.10;96.30;;;;;;5028510;28;20370;-77
2023/05/16 02:19:23;;;;;;;;;;;14.20;96.10;;;;;;5026717;28;19974;-77
2023/05/16 02:21:49;;;;;;;;;;;14.20;95.90;;;;;;5030672;28;19913;-77
2023/05/16 02:24:14;;;;;;;;;;;14.20;95.60;;;;;;5026616;28;19913;-77
2023/05/16 02:26:40;;;;;;;;;;;14.30;95.40;;;;;;5028933;28;20908;-77
2023/05/16 02:29:05;;;;;;;;;;;14.30;95.50;;;;;;5027258;28;20397;-77
2023/05/16 02:31:31;;;;;;;;;;;14.30;95.50;;;;;;5023703;28;19963;-77
2023/05/16 02:33:57;;;;;;;;;;;14.20;95.60;;;;;;5030496;28;19913;-79
2023/05/16 02:36:23;;;;;;;;;;;14.20;95.80;;;;;;5028131;28;19955;-78
2023/05/16 02:38:49;;;;;;;;;;;14.20;95.70;;;;;;5030082;28;20442;-78
2023/05/16 02:41:15;;;;;;;;;;;14.20;95.10;;;;;;5029621;28;20012;-78
2023/05/16 02:43:40;;;;;;;;;;;14.30;95.00;;;;;;5028483;28;19916;-77
2023/05/16 02:46:22;;;;;;;;;;;14.30;94.60;;;;;;5031479;28;19920;-78
2023/05/16 02:48:48;;;;;;;;;;;14.40;94.60;;;;;;5026689;28;19908;-78
2023/05/16 02:51:13;;;;;;;;;;;14.40;94.40;;;;;;5022379;28;19916;-78
2023/05/16 02:53:39;;;;;;;;;;;14.30;94.60;;;;;;5028177;28;19909;-78
2023/05/16 02:56:05;;;;;;;;;;;14.30;94.80;;;;;;5025627;28;20470;-78
2023/05/16 02:58:31;;;;;;;;;;;14.30;94.90;;;;;;5028845;28;20448;-78
2023/05/16 03:00:57;;;;;;;;;;;14.40;94.50;;;;;;5023313;28;19908;-78
2023/05/16 03:03:22;;;;;;;;;;;14.40;94.40;;;;;;5026426;28;19921;-78
2023/05/16 03:05:48;;;;;;;;;;;14.40;94.20;;;;;;5025726;28;19983;-78
2023/05/16 03:08:14;;;;;;;;;;;14.40;94.40;;;;;;5031704;28;19909;-78
2023/05/16 03:10:39;;;;;;;;;;;14.40;94.40;;;;;;5031954;28;19916;-78
2023/05/16 03:13:05;;;;;;;;;;;14.40;94.60;;;;;;5032549;28;20318;-78
2023/05/16 03:15:30;;;;;;;;;;;14.40;94.50;;;;;;5036993;28;20662;-79
2023/05/16 03:17:56;;;;;;;;;;;14.40;94.30;;;;;;5032459;28;19905;-78
2023/05/16 03:20:21;;;;;;;;;;;14.30;95.30;;;;;;5028052;28;19905;-78
2023/05/16 03:22:47;;;;;;;;;;;14.20;96.10;;;;;;5028292;28;19917;-79
2023/05/16 03:25:12;;;;;;;;;;;14.00;96.90;;;;;;5040038;28;19912;-78
2023/05/16 03:27:38;;;;;;;;;;;14.00;97.30;;;;;;5027130;28;20307;-79
2023/05/16 03:30:04;;;;;;;;;;;14.00;96.70;;;;;;5030627;28;19912;-79
2023/05/16 03:32:30;;;;;;;;;;;14.10;95.80;;;;;;5028097;28;19928;-78
2023/05/16 03:34:55;;;;;;;;;;;14.10;96.10;;;;;;5025162;28;19912;-79
2023/05/16 03:37:21;;;;;;;;;;;14.00;96.40;;;;;;5029241;28;19972;-79
2023/05/16 03:39:46;;;;;;;;;;;14.10;95.90;;;;;;5031534;28;19948;-78
2023/05/16 03:42:12;;;;;;;;;;;14.10;95.70;;;;;;5030775;28;21299;-77
2023/05/16 03:44:38;;;;;;;;;;;14.10;96.20;;;;;;5029513;28;19919;-78
2023/05/16 03:47:03;;;;;;;;;;;14.00;96.90;;;;;;5030593;28;20338;-77
2023/05/16 03:49:29;;;;;;;;;;;14.10;96.30;;;;;;5019504;28;19909;-77
2023/05/16 03:51:54;;;;;;;;;;;14.20;96.10;;;;;;5028812;28;19957;-77
2023/05/16 03:54:21;;;;;;;;;;;14.10;96.50;;;;;;5025951;28;20378;-78
2023/05/16 03:56:46;;;;;;;;;;;14.10;96.90;;;;;;5026729;28;19920;-78
2023/05/16 03:59:12;;;;;;;;;;;14.10;96.60;;;;;;5023201;28;19908;-78
2023/05/16 04:01:37;;;;;;;;;;;14.10;96.40;;;;;;5027363;28;20371;-78
2023/05/16 04:04:03;;;;;;;;;;;14.10;96.20;;;;;;5030472;28;19921;-78
2023/05/16 04:06:29;;;;;;;;;;;14.10;96.10;;;;;;5027601;28;20008;-78
2023/05/16 04:08:55;;;;;;;;;;;14.20;96.00;;;;;;5031840;28;19996;-78
2023/05/16 04:11:20;;;;;;;;;;;14.20;95.90;;;;;;5030928;28;19913;-78
2023/05/16 04:13:46;;;;;;;;;;;14.20;95.90;;;;;;5031421;28;19915;-78
2023/05/16 04:16:11;;;;;;;;;;;14.30;95.60;;;;;;5030693;28;19919;-78
2023/05/16 04:18:37;;;;;;;;;;;14.30;95.60;;;;;;5030404;28;19988;-77
2023/05/16 04:21:03;;;;;;;;;;;14.30;95.80;;;;;;5030008;28;19987;-77
2023/05/16 04:23:28;;;;;;;;;;;14.40;95.20;;;;;;5028830;28;19978;-78
2023/05/16 04:25:55;;;;;;;;;;;14.40;95.20;;;;;;5026880;28;19966;-78
2023/05/16 04:28:21;;;;;;;;;;;14.40;95.00;;;;;;5026228;28;20390;-78
2023/05/16 04:30:47;;;;;;;;;;;14.50;95.00;;;;;;5025606;28;19924;-78
2023/05/16 04:33:13;;;;;;;;;;;14.50;95.00;;;;;;5030709;28;19917;-79
2023/05/16 04:35:38;;;;;;;;;;;14.50;94.80;;;;;;5027581;28;19909;-79
2023/05/16 04:38:04;;;;;;;;;;;14.60;94.50;;;;;;5030287;28;20401;-79
2023/05/16 04:40:30;;;;;;;;;;;14.60;94.50;;;;;;5031979;28;20060;-78
2023/05/16 04:42:55;;;;;;;;;;;14.70;93.90;;;;;;5027433;28;20347;-79
2023/05/16 04:45:21;;;;;;;;;;;14.70;93.90;;;;;;5030114;28;19967;-78
2023/05/16 04:47:46;;;;;;;;;;;14.80;93.50;;;;;;5033737;28;19909;-78
2023/05/16 04:50:12;;;;;;;;;;;14.80;93.70;;;;;;5026204;28;19909;-80
2023/05/16 04:52:37;;;;;;;;;;;14.80;93.50;;;;;;5026094;28;19912;-78
2023/05/16 04:55:03;;;;;;;;;;;14.90;93.50;;;;;;5030743;28;19952;-78
2023/05/16 04:57:29;;;;;;;;;;;14.90;93.50;;;;;;5029059;28;19988;-79
2023/05/16 04:59:54;;;;;;;;;;;14.90;93.40;;;;;;5029244;28;19916;-78
2023/05/16 05:02:20;;;;;;;;;;;14.90;93.40;;;;;;5030461;28;19921;-80
2023/05/16 05:04:46;;;;;;;;;;;14.90;93.30;;;;;;5030595;28;19913;-78
2023/05/16 05:07:11;;;;;;;;;;;14.90;93.80;;;;;;5024677;28;19952;-78
2023/05/16 05:09:36;;;;;;;;;;;14.90;93.60;;;;;;5030257;28;19905;-78
2023/05/16 05:12:02;;;;;;;;;;;14.90;93.50;;;;;;5030029;28;20260;-78
2023/05/16 05:14:28;;;;;;;;;;;14.90;93.30;;;;;;5030454;28;19914;-78
2023/05/16 05:16:54;;;;;;;;;;;14.90;93.30;;;;;;5028897;28;19963;-79
2023/05/16 05:19:19;;;;;;;;;;;14.90;93.60;;;;;;5028897;28;20386;-80
2023/05/16 05:21:45;;;;;;;;;;;15.00;93.60;;;;;;5021442;28;20412;-79
2023/05/16 05:24:10;;;;;;;;;;;15.00;93.50;;;;;;5029794;28;20378;-79
2023/05/16 05:26:36;;;;;;;;;;;15.00;93.20;;;;;;5030255;28;19911;-79
2023/05/16 05:29:01;;;;;;;;;;;15.00;93.30;;;;;;5029694;28;19905;-78
2023/05/16 05:31:27;;;;;;;;;;;15.00;93.50;;;;;;5023142;28;19905;-78
2023/05/16 05:33:53;;;;;;;;;;;15.00;93.50;;;;;;5027676;28;19905;-79
2023/05/16 05:36:19;;;;;;;;;;;15.00;93.70;;;;;;5028754;28;20390;-79
2023/05/16 05:38:45;;;;;;;;;;;14.90;93.60;;;;;;5029755;28;19955;-79
2023/05/16 05:41:10;;;;;;;;;;;15.00;93.60;;;;;;5029700;28;19919;-79
2023/05/16 05:43:36;;;;;;;;;;;15.00;93.50;;;;;;5029668;28;20364;-79
2023/05/16 05:46:01;;;;;;;;;;;15.10;93.50;;;;;;5021524;28;20429;-79
2023/05/16 05:48:28;;;;;;;;;;;15.10;93.30;;;;;;5029361;28;20382;-79
2023/05/16 05:50:54;;;;;;;;;;;15.10;93.30;;;;;;5028312;28;19924;-79
2023/05/16 05:53:20;;;;;;;;;;;15.20;93.20;;;;;;5029317;28;19905;-79
2023/05/16 05:55:46;;;;;;;;;;;15.20;93.20;;;;;;5029608;28;20357;-79
2023/05/16 05:58:11;;;;;;;;;;;15.20;92.90;;;;;;5029304;28;19959;-79
2023/05/16 06:00:37;;;;;;;;;;;15.20;92.70;;;;;;5029422;28;19920;-79
2023/05/16 06:03:03;;;;;;;;;;;15.30;92.90;;;;;;5029078;28;19924;-79
2023/05/16 06:05:29;;;;;;;;;;;15.30;92.80;;;;;;5029411;28;19915;-79
2023/05/16 06:07:54;;;;;;;;;;;15.30;93.00;;;;;;5025899;28;19909;-79
2023/05/16 06:10:20;;;;;;;;;;;15.30;92.80;;;;;;5021472;28;19913;-79
2023/05/16 06:12:45;;;;;;;;;;;15.30;92.60;;;;;;5028033;28;20398;-79
2023/05/16 06:15:11;;;;;;;;;;;15.40;92.70;;;;;;5028699;28;19912;-79
2023/05/16 06:17:37;;;;;;;;;;;15.40;92.50;;;;;;5028986;28;19952;-79
2023/05/16 06:20:03;;;;;;;;;;;15.40;92.60;;;;;;5028046;28;19920;-79
2023/05/16 06:22:29;;;;;;;;;;;15.50;92.60;;;;;;5028860;28;20432;-79
2023/05/16 06:24:55;;;;;;;;;;;15.50;92.30;;;;;;5029286;28;19948;-79
2023/05/16 06:27:20;;;;;;;;;;;15.50;92.10;;;;;;5028885;28;19944;-79
2023/05/16 06:29:46;;;;;;;;;;;15.50;92.00;;;;;;5029154;28;20000;-79
2023/05/16 06:32:11;;;;;;;;;;;15.50;91.90;;;;;;5028706;28;20689;-79
2023/05/16 06:34:37;;;;;;;;;;;15.60;91.40;;;;;;5029033;28;19905;-79
2023/05/16 06:37:02;;;;;;;;;;;15.50;91.30;;;;;;5028650;28;19905;-79
2023/05/16 06:39:28;;;;;;;;;;;15.50;91.20;;;;;;5029079;28;19906;-79
2023/05/16 06:41:54;;;;;;;;;;;15.50;91.10;;;;;;5030504;28;19940;-79
2023/05/16 06:44:19;;;;;;;;;;;15.50;91.20;;;;;;5032936;28;19909;-78
2023/05/16 06:46:45;;;;;;;;;;;15.50;90.90;;;;;;5032338;28;19913;-79
2023/05/16 06:49:10;;;;;;;;;;;15.50;90.70;;;;;;5032703;28;20004;-79
2023/05/16 06:51:36;;;;;;;;;;;15.60;90.30;;;;;;5023342;28;19909;-80
2023/05/16 06:54:01;;;;;;;;;;;15.70;90.30;;;;;;5026124;28;19960;-79
2023/05/16 06:56:27;;;;;;;;;;;15.70;89.70;;;;;;5029635;28;19934;-78
2023/05/16 06:58:53;;;;;;;;;;;15.70;89.40;;;;;;5023275;28;19966;-79
2023/05/16 07:01:18;;;;;;;;;;;15.80;89.60;;;;;;5032280;28;20351;-78
2023/05/16 07:03:44;;;;;;;;;;;15.80;89.40;;;;;;5023192;28;19912;-78
2023/05/16 07:06:09;;;;;;;;;;;15.90;89.00;;;;;;5032165;28;19927;-77
2023/05/16 07:08:35;;;;;;;;;;;15.90;88.60;;;;;;5031278;28;20413;-77
2023/05/16 07:11:01;;;;;;;;;;;16.00;88.60;;;;;;5032272;28;19916;-78
2023/05/16 07:13:27;;;;;;;;;;;16.00;88.60;;;;;;5032289;28;19908;-77
2023/05/16 07:15:53;;;;;;;;;;;16.10;88.30;;;;;;5032102;28;19905;-78
2023/05/16 07:18:18;;;;;;;;;;;16.20;88.30;;;;;;5031937;28;19908;-77
2023/05/16 07:20:44;;;;;;;;;;;16.20;88.10;;;;;;5031922;28;19917;-77
2023/05/16 07:23:10;;;;;;;;;;;16.20;87.50;;;;;;5030877;28;19916;-78
2023/05/16 07:25:36;;;;;;;;;;;16.30;87.60;;;;;;5032244;28;19909;-78
2023/05/16 07:28:01;;;;;;;;;;;16.40;87.50;;;;;;5031899;28;19944;-79
2023/05/16 07:30:27;;;;;;;;;;;16.40;87.30;;;;;;5031961;28;20435;-79
2023/05/16 07:32:52;;;;;;;;;;;16.40;87.50;;;;;;5031945;28;19905;-78
2023/05/16 07:35:18;;;;;;;;;;;16.50;87.30;;;;;;5031849;28;19986;-78
2023/05/16 07:37:44;;;;;;;;;;;16.50;87.70;;;;;;5030578;28;20383;-78
2023/05/16 07:40:10;;;;;;;;;;;16.60;87.70;;;;;;5031714;28;20345;-77
2023/05/16 07:42:35;;;;;;;;;;;16.60;87.60;;;;;;5031866;28;19924;-77
2023/05/16 07:45:01;;;;;;;;;;;16.70;87.70;;;;;;5031527;28;20476;-78
2023/05/16 07:47:27;;;;;;;;;;;16.70;87.00;;;;;;5031634;28;19909;-79
2023/05/16 07:49:52;;;;;;;;;;;16.70;86.90;;;;;;5031853;28;19913;-78
2023/05/16 07:52:18;;;;;;;;;;;16.80;87.00;;;;;;5028607;28;19905;-78
2023/05/16 07:54:45;;;;;;;;;;;16.80;87.30;;;;;;5027548;28;19912;-78
2023/05/16 07:57:12;;;;;;;;;;;16.80;87.40;;;;;;5031668;28;20032;-77
2023/05/16 07:59:38;;;;;;;;;;;16.90;87.30;;;;;;5031568;28;19909;-77
2023/05/16 08:02:03;;;;;;;;;;;16.90;86.80;;;;;;5031353;28;19909;-78
2023/05/16 08:04:29;;;;;;;;;;;17.00;85.90;;;;;;5031281;28;19916;-78
2023/05/16 08:06:54;;;;;;;;;;;16.90;85.10;;;;;;5031407;28;19909;-78
2023/05/16 08:09:20;;;;;;;;;;;17.00;85.90;;;;;;5031281;28;19909;-78
2023/05/16 08:11:45;;;;;;;;;;;17.00;85.10;;;;;;5031259;28;20653;-78
2023/05/16 08:14:11;;;;;;;;;;;17.00;85.10;;;;;;5031179;28;19913;-78
2023/05/16 08:16:37;;;;;;;;;;;17.10;85.30;;;;;;5031145;28;19905;-78
2023/05/16 08:19:02;;;;;;;;;;;17.10;85.20;;;;;;5029713;28;19944;-79
2023/05/16 08:21:28;;;;;;;;;;;17.10;85.60;;;;;;5031152;28;19932;-78
2023/05/16 08:23:54;;;;;;;;;;;17.20;85.50;;;;;;5029757;28;19909;-79
2023/05/16 08:26:20;;;;;;;;;;;17.30;85.60;;;;;;5031053;28;19909;-78
2023/05/16 08:28:46;;;;;;;;;;;17.40;85.40;;;;;;5030863;28;19909;-78
2023/05/16 08:31:12;;;;;;;;;;;17.40;85.40;;;;;;5029478;28;19905;-78
2023/05/16 08:33:37;;;;;;;;;;;17.50;85.10;;;;;;5029473;28;19920;-77
2023/05/16 08:36:03;;;;;;;;;;;17.60;84.70;;;;;;5029200;28;20509;-78
2023/05/16 08:38:28;;;;;;;;;;;17.60;84.50;;;;;;5028890;28;19917;-77
2023/05/16 08:40:54;;;;;;;;;;;17.60;84.60;;;;;;5030521;28;19909;-77
2023/05/16 08:43:20;;;;;;;;;;;17.70;84.50;;;;;;5030483;28;19956;-78
2023/05/16 08:45:46;;;;;;;;;;;17.70;84.70;;;;;;5030747;28;19909;-78
2023/05/16 08:48:13;;;;;;;;;;;17.80;84.50;;;;;;5030449;28;19919;-78
2023/05/16 08:50:39;;;;;;;;;;;17.90;84.10;;;;;;5030683;28;19936;-79
2023/05/16 08:53:06;;;;;;;;;;;18.00;83.60;;;;;;5024445;28;19913;-78
2023/05/16 08:55:32;;;;;;;;;;;18.10;83.60;;;;;;5030607;28;20397;-78
2023/05/16 08:57:59;;;;;;;;;;;18.20;84.00;;;;;;5030373;28;19995;-78
2023/05/16 09:00:25;;;;;;;;;;;18.40;82.90;;;;;;5030473;28;20383;-78
2023/05/16 09:02:51;;;;;;;;;;;18.50;82.40;;;;;;5030112;28;20464;-79
2023/05/16 09:05:17;;;;;;;;;;;18.60;82.00;;;;;;5028431;28;19920;-78
2023/05/16 09:07:43;;;;;;;;;;;18.80;81.90;;;;;;5030065;28;19979;-78
2023/05/16 09:10:09;;;;;;;;;;;18.90;81.70;;;;;;5028740;28;20365;-78
2023/05/16 09:12:35;;;;;;;;;;;19.00;81.80;;;;;;5028819;28;20298;-78
2023/05/16 09:15:04;;;;;;;;;;;19.00;80.90;;;;;;5029641;28;19909;-79
2023/05/16 09:17:37;;;;;;;;;;;19.10;81.10;;;;;;5029977;28;20286;-78
2023/05/16 09:20:09;;;;;;;;;;;19.10;81.20;;;;;;5029860;28;19995;-79
2023/05/16 09:22:35;;;;;;;;;;;19.10;79.90;;;;;;5029007;28;19909;-79
2023/05/16 09:25:00;;;;;;;;;;;19.10;79.40;;;;;;5029311;28;19970;-79
2023/05/16 09:27:29;;;;;;;;;;;19.10;79.10;;;;;;5028798;28;19912;-79
2023/05/16 09:29:56;;;;;;;;;;;19.10;80.10;;;;;;5029059;28;19917;-78
2023/05/16 09:32:22;;;;;;;;;;;19.10;79.90;;;;;;5028996;28;19937;-78
2023/05/16 09:34:48;;;;;;;;;;;19.00;79.70;;;;;;5029130;28;20008;-79
2023/05/16 09:37:14;;;;;;;;;;;19.00;80.10;;;;;;5028638;28;20059;-79
2023/05/16 09:39:47;;;;;;;;;;;19.00;79.90;;;;;;5029031;28;20359;-79
2023/05/16 09:42:14;;;;;;;;;;;19.10;79.80;;;;;;5028878;28;19928;-78
2023/05/16 09:44:40;;;;;;;;;;;19.10;80.30;;;;;;5025049;28;19909;-77
2023/05/16 09:47:06;;;;;;;;;;;19.20;80.10;;;;;;5028687;28;19963;-80
2023/05/16 09:49:31;;;;;;;;;;;19.20;80.20;;;;;;5028814;28;19912;-78
2023/05/16 09:52:00;;;;;;;;;;;19.20;79.80;;;;;;5028602;28;19928;-79
2023/05/16 09:54:30;;;;;;;;;;;19.20;80.20;;;;;;5026832;28;19913;-80
2023/05/16 09:56:56;;;;;;;;;;;19.20;80.30;;;;;;5028667;28;20349;-79
2023/05/16 09:59:22;;;;;;;;;;;19.20;79.30;;;;;;5027536;28;19909;-79
2023/05/16 10:01:47;;;;;;;;;;;19.20;79.70;;;;;;5028649;28;19952;-79
2023/05/16 10:04:15;;;;;;;;;;;19.20;79.70;;;;;;5027485;28;19912;-78
2023/05/16 10:06:43;;;;;;;;;;;19.10;79.50;;;;;;5028831;28;19908;-79
2023/05/16 10:09:15;;;;;;;;;;;19.10;79.90;;;;;;5028580;28;19905;-78
2023/05/16 10:11:41;;;;;;;;;;;19.10;79.70;;;;;;5028873;28;19909;-78
2023/05/16 10:14:08;;;;;;;;;;;19.10;80.00;;;;;;5028642;28;19956;-78
2023/05/16 10:16:34;;;;;;;;;;;19.20;79.70;;;;;;5027892;28;20374;-78
2023/05/16 10:19:01;;;;;;;;;;;19.20;80.20;;;;;;5028846;28;19951;-78
2023/05/16 10:21:28;;;;;;;;;;;19.30;80.00;;;;;;5028679;28;19916;-78
2023/05/16 10:23:55;;;;;;;;;;;19.30;79.70;;;;;;5028950;28;20333;-78
2023/05/16 10:26:21;;;;;;;;;;;19.30;79.90;;;;;;5029144;28;19909;-76
2023/05/16 10:28:47;;;;;;;;;;;19.30;79.90;;;;;;5028977;28;19905;-78
2023/05/16 10:31:14;;;;;;;;;;;19.30;79.10;;;;;;5029150;28;19911;-79
2023/05/16 10:33:40;;;;;;;;;;;19.30;79.40;;;;;;5029453;28;19919;-78
2023/05/16 10:36:06;;;;;;;;;;;19.40;79.80;;;;;;5028073;28;19913;-79
2023/05/16 10:38:33;;;;;;;;;;;19.40;79.40;;;;;;5029209;28;19920;-79
2023/05/16 10:40:59;;;;;;;;;;;19.30;79.80;;;;;;5027085;28;19904;-79
2023/05/16 10:43:26;;;;;;;;;;;19.40;79.70;;;;;;5029031;28;19920;-78
2023/05/16 10:45:56;;;;;;;;;;;19.40;80.50;;;;;;5029070;28;19912;-77
2023/05/16 10:48:28;;;;;;;;;;;19.40;80.70;;;;;;5028939;28;20371;-78
2023/05/16 10:50:54;;;;;;;;;;;19.60;80.30;;;;;;5021684;28;19955;-78
2023/05/16 10:53:22;;;;;;;;;;;19.70;79.80;;;;;;5023156;28;19988;-77
2023/05/16 10:55:48;;;;;;;;;;;19.80;80.00;;;;;;5028524;28;19932;-77
2023/05/16 10:58:17;;;;;;;;;;;19.90;79.80;;;;;;5028668;28;19905;-77
2023/05/16 11:00:43;;;;;;;;;;;20.00;79.50;;;;;;5028963;28;19978;-77
2023/05/16 11:03:22;;;;;;;;;;;20.10;78.60;;;;;;5025409;28;20486;-78
2023/05/16 11:05:51;;;;;;;;;;;20.10;78.20;;;;;;5029008;28;19995;-78
2023/05/16 11:08:16;;;;;;;;;;;20.10;78.40;;;;;;5025171;28;19928;-78
2023/05/16 11:10:42;;;;;;;;;;;20.10;78.20;;;;;;5023113;28;19927;-78
2023/05/16 11:13:07;;;;;;;;;;;20.00;78.40;;;;;;5028507;28;19948;-78
2023/05/16 11:15:33;;;;;;;;;;;20.00;78.80;;;;;;5028269;28;19909;-78
2023/05/16 11:18:06;;;;;;;;;;;19.90;79.20;;;;;;5016002;28;19905;-78
2023/05/16 11:20:33;;;;;;;;;;;19.80;79.50;;;;;;5025545;28;20434;-79
2023/05/16 11:23:17;;;;;;;;;;;19.80;78.90;;;;;;5028529;28;20008;-79
2023/05/16 11:25:48;;;;;;;;;;;19.80;78.90;;;;;;5027751;28;19905;-78
2023/05/16 11:28:13;;;;;;;;;;;19.80;79.00;;;;;;5019514;28;19909;-79
2023/05/16 11:30:43;;;;;;;;;;;19.90;78.30;;;;;;5031666;28;19999;-79
2023/05/16 11:33:08;;;;;;;;;;;19.90;78.50;;;;;;5032177;28;19952;-79
2023/05/16 11:35:35;;;;;;;;;;;20.00;78.40;;;;;;5031778;28;20404;-79
2023/05/16 11:38:01;;;;;;;;;;;20.10;78.40;;;;;;5030668;28;19967;-79
2023/05/16 11:40:27;;;;;;;;;;;20.30;78.50;;;;;;5030378;28;19904;-79
2023/05/16 11:42:52;;;;;;;;;;;20.40;78.70;;;;;;5031934;28;19957;-79
2023/05/16 11:45:20;;;;;;;;;;;20.40;78.90;;;;;;5031544;28;20349;-78
2023/05/16 11:47:46;;;;;;;;;;;20.50;79.40;;;;;;5031773;28;19908;-78
2023/05/16 11:50:16;;;;;;;;;;;20.60;79.10;;;;;;5031321;28;19912;-78
2023/05/16 11:52:42;;;;;;;;;;;20.60;78.50;;;;;;5031788;28;19963;-78
2023/05/16 11:55:10;;;;;;;;;;;20.70;78.40;;;;;;5029893;28;20393;-78
2023/05/16 11:57:37;;;;;;;;;;;20.70;78.40;;;;;;5024453;28;20361;-78
2023/05/16 12:00:06;;;;;;;;;;;20.80;78.40;;;;;;5031291;28;19909;-78
2023/05/16 12:02:32;;;;;;;;;;;20.90;78.60;;;;;;5031817;28;19951;-78
2023/05/16 12:04:57;;;;;;;;;;;21.00;79.20;;;;;;5031147;28;19956;-78
2023/05/16 12:07:27;;;;;;;;;;;21.20;78.80;;;;;;5031534;28;19937;-78
2023/05/16 12:09:52;;;;;;;;;;;21.40;78.00;;;;;;5030821;28;20374;-78
2023/05/16 12:12:19;;;;;;;;;;;21.60;76.70;;;;;;5031434;28;19911;-78
2023/05/16 12:14:45;;;;;;;;;;;21.90;76.00;;;;;;5026080;28;20000;-78
2023/05/16 12:17:10;;;;;;;;;;;22.10;75.10;;;;;;5036986;28;19999;-78
2023/05/16 12:19:36;;;;;;;;;;;22.30;75.10;;;;;;5031330;28;19908;-79
2023/05/16 12:22:01;;;;;;;;;;;22.50;73.90;;;;;;5029841;28;20481;-78
2023/05/16 12:24:30;;;;;;;;;;;22.70;73.70;;;;;;5019294;28;19905;-78
2023/05/16 12:26:57;;;;;;;;;;;22.90;73.20;;;;;;5031137;28;19909;-79
2023/05/16 12:29:24;;;;;;;;;;;23.20;73.20;;;;;;5026013;28;19955;-79
2023/05/16 12:31:51;;;;;;;;;;;23.40;72.50;;;;;;5029779;28;20365;-79
2023/05/16 12:34:19;;;;;;;;;;;23.50;72.00;;;;;;5026645;28;19941;-78
2023/05/16 12:36:49;;;;;;;;;;;23.60;71.60;;;;;;5020895;28;19913;-79
2023/05/16 12:39:15;;;;;;;;;;;23.70;72.00;;;;;;5021118;28;19921;-78
2023/05/16 12:41:41;;;;;;;;;;;23.70;71.40;;;;;;5024249;28;19928;-78
2023/05/16 12:44:15;;;;;;;;;;;23.60;71.90;;;;;;5029987;28;19909;-78
2023/05/16 12:46:45;;;;;;;;;;;23.50;71.90;;;;;;5028818;28;19940;-78
2023/05/16 12:49:12;;;;;;;;;;;23.30;71.80;;;;;;5025367;28;19909;-79
2023/05/16 12:51:38;;;;;;;;;;;23.20;72.30;;;;;;5024928;28;20334;-78
2023/05/16 12:54:10;;;;;;;;;;;23.00;72.40;;;;;;5023212;28;19951;-78
2023/05/16 12:56:39;;;;;;;;;;;22.90;72.30;;;;;;5030117;28;19909;-78
2023/05/16 12:59:05;;;;;;;;;;;22.80;72.40;;;;;;5030582;28;19968;-78
2023/05/16 13:01:31;;;;;;;;;;;22.70;72.70;;;;;;5032567;28;19917;-78
2023/05/16 13:03:56;;;;;;;;;;;22.70;72.90;;;;;;5026383;28;19905;-78
2023/05/16 13:06:22;;;;;;;;;;;22.50;73.00;;;;;;5027609;28;19956;-78
2023/05/16 13:08:47;;;;;;;;;;;22.40;73.20;;;;;;5027499;28;19916;-78
2023/05/16 13:11:13;;;;;;;;;;;22.10;73.50;;;;;;5027708;28;19909;-78
2023/05/16 13:13:38;;;;;;;;;;;22.00;73.90;;;;;;5035654;28;20393;-78
2023/05/16 13:16:04;;;;;;;;;;;21.70;74.50;;;;;;5026191;28;20029;-77
2023/05/16 13:18:30;;;;;;;;;;;21.70;74.70;;;;;;5029329;28;20358;-78
2023/05/16 13:20:56;;;;;;;;;;;21.70;75.30;;;;;;5021453;28;19920;-79
2023/05/16 13:23:21;;;;;;;;;;;21.50;75.50;;;;;;5024057;28;19912;-77
2023/05/16 13:25:47;;;;;;;;;;;21.40;75.90;;;;;;5027190;28;19909;-79
2023/05/16 13:28:12;;;;;;;;;;;20.90;76.70;;;;;;5024911;28;19909;-79
2023/05/16 13:30:38;;;;;;;;;;;20.80;77.30;;;;;;5022841;28;20413;-78
2023/05/16 13:33:03;;;;;;;;;;;20.70;77.70;;;;;;5029429;28;19909;-79
2023/05/16 13:35:29;;;;;;;;;;;20.60;78.20;;;;;;5025019;28;19998;-79
2023/05/16 13:37:54;;;;;;;;;;;20.60;78.30;;;;;;5020939;28;19971;-79
2023/05/16 13:40:20;;;;;;;;;;;20.60;78.60;;;;;;5028714;28;19924;-79
2023/05/16 13:42:45;;;;;;;;;;;20.60;78.60;;;;;;5029249;28;19917;-78
2023/05/16 13:45:11;;;;;;;;;;;20.60;78.70;;;;;;5028910;28;19911;-78
2023/05/16 13:47:37;;;;;;;;;;;20.60;79.00;;;;;;5027466;28;19908;-79
2023/05/16 13:50:06;;;;;;;;;;;20.60;79.10;;;;;;5023577;28;19932;-79
2023/05/16 13:52:32;;;;;;;;;;;20.60;79.00;;;;;;5025221;28;20031;-78
2023/05/16 13:54:57;;;;;;;;;;;20.60;78.90;;;;;;5028789;28;20458;-79
2023/05/16 13:57:23;;;;;;;;;;;20.60;78.70;;;;;;5028400;28;19920;-78
2023/05/16 13:59:49;;;;;;;;;;;20.50;78.60;;;;;;5028604;28;19911;-78
2023/05/16 14:02:14;;;;;;;;;;;20.50;78.50;;;;;;5028817;28;19964;-78
2023/05/16 14:04:40;;;;;;;;;;;20.50;78.50;;;;;;5028418;28;20008;-78
2023/05/16 14:07:06;;;;;;;;;;;20.50;78.60;;;;;;5028124;28;20059;-78
2023/05/16 14:09:33;;;;;;;;;;;20.50;78.40;;;;;;5027621;28;19909;-78
2023/05/16 14:12:01;;;;;;;;;;;20.20;80.00;;;;;;5028505;28;19920;-79